createdAt,value
2022-09-26T00:01:16.106Z,11.10
2022-09-26T00:03:48.779Z,10.70
2022-09-26T00:06:18.116Z,10.70
2022-09-26T00:08:46.287Z,10.70
2022-09-26T00:11:16.921Z,10.70
2022-09-26T00:13:43.869Z,10.60
2022-09-26T00:16:12.064Z,10.70
2022-09-26T00:18:40.016Z,10.60
2022-09-26T00:21:14.231Z,10.60
2022-09-26T00:23:42.092Z,10.60
2022-09-26T00:26:10.598Z,10.50
2022-09-26T00:28:38.071Z,10.60
2022-09-26T00:31:12.048Z,10.50
2022-09-26T00:33:39.218Z,10.50
2022-09-26T00:36:07.122Z,10.50
2022-09-26T00:38:34.974Z,10.50
2022-09-26T00:41:02.260Z,10.80
2022-09-26T00:43:32.308Z,10.50
2022-09-26T00:46:05.432Z,10.60
2022-09-26T00:48:35.181Z,10.50
2022-09-26T00:51:03.106Z,10.50
2022-09-26T00:53:37.081Z,10.50
2022-09-26T00:56:10.811Z,10.50
2022-09-26T00:58:44.718Z,10.50
2022-09-26T01:01:12.265Z,10.80
2022-09-26T01:03:41.621Z,10.40
2022-09-26T01:06:08.749Z,10.60
2022-09-26T01:08:41.533Z,10.90
2022-09-26T01:11:12.505Z,10.50
2022-09-26T01:13:43.499Z,10.50
2022-09-26T01:16:10.584Z,10.50
2022-09-26T01:18:37.925Z,10.50
2022-09-26T01:21:16.381Z,10.60
2022-09-26T01:24:01.675Z,10.50
2022-09-26T01:27:05.103Z,10.50
2022-09-26T01:29:56.236Z,10.50
2022-09-26T01:32:50.378Z,10.40
2022-09-26T01:35:44.916Z,10.40
2022-09-26T01:38:39.447Z,10.40
2022-09-26T01:41:22.326Z,10.40
2022-09-26T01:43:58.927Z,10.40
2022-09-26T01:46:37.003Z,10.50
2022-09-26T01:49:09.819Z,10.50
2022-09-26T01:51:44.461Z,10.40
2022-09-26T01:54:17.947Z,10.40
2022-09-26T01:56:48.191Z,10.40
2022-09-26T01:59:28.056Z,10.40
2022-09-26T02:02:00.912Z,10.70
2022-09-26T02:04:34.855Z,10.60
2022-09-26T02:07:14.579Z,10.50
2022-09-26T02:10:04.741Z,10.50
2022-09-26T02:12:39.552Z,10.50
2022-09-26T02:15:11.142Z,10.50
2022-09-26T02:17:45.185Z,10.50
2022-09-26T02:20:34.897Z,10.80
2022-09-26T02:23:04.875Z,10.60
2022-09-26T02:25:32.942Z,10.60
2022-09-26T02:28:00.221Z,10.70
2022-09-26T02:30:27.145Z,10.70
2022-09-26T02:32:54.006Z,10.70
2022-09-26T02:35:39.490Z,10.70
2022-09-26T02:38:07.106Z,10.70
2022-09-26T02:41:22.720Z,10.80
2022-09-26T02:44:19.866Z,10.80
2022-09-26T02:46:56.819Z,10.80
2022-09-26T02:50:03.970Z,10.90
2022-09-26T02:52:55.414Z,11.00
2022-09-26T02:55:26.565Z,11.00
2022-09-26T02:58:05.521Z,11.40
2022-09-26T03:01:10.655Z,11.10
2022-09-26T03:03:52.562Z,11.20
2022-09-26T03:06:26.715Z,11.20
2022-09-26T03:08:56.690Z,11.20
2022-09-26T03:11:27.161Z,11.30
2022-09-26T03:13:56.121Z,11.30
2022-09-26T03:16:25.845Z,11.40
2022-09-26T03:19:15.659Z,11.50
2022-09-26T03:21:42.844Z,11.40
2022-09-26T03:24:09.808Z,11.50
2022-09-26T03:26:37.148Z,11.50
2022-09-26T03:29:04.042Z,11.60
2022-09-26T03:31:31.413Z,11.60
2022-09-26T03:33:58.362Z,12.00
2022-09-26T03:36:25.486Z,11.70
2022-09-26T03:38:52.328Z,11.70
2022-09-26T03:41:19.615Z,11.70
2022-09-26T03:43:46.424Z,11.80
2022-09-26T03:46:13.451Z,11.80
2022-09-26T03:48:40.343Z,11.80
2022-09-26T03:51:14.590Z,11.80
2022-09-26T03:53:47.050Z,11.80
2022-09-26T03:56:16.334Z,12.20
2022-09-26T03:58:43.687Z,12.10
2022-09-26T04:01:12.711Z,11.90
2022-09-26T04:03:46.461Z,11.90
2022-09-26T04:06:20.798Z,11.90
2022-09-26T04:08:50.133Z,11.90
2022-09-26T04:11:22.892Z,11.90
2022-09-26T04:13:52.876Z,11.90
2022-09-26T04:16:23.156Z,11.90
2022-09-26T04:18:56.585Z,11.90
2022-09-26T04:21:24.785Z,11.90
2022-09-26T04:23:53.315Z,11.90
2022-09-26T04:26:23.693Z,12.00
2022-09-26T04:28:54.879Z,12.20
2022-09-26T04:31:27.515Z,12.00
2022-09-26T04:33:57.857Z,12.00
2022-09-26T04:36:24.643Z,12.00
2022-09-26T04:38:51.959Z,12.40
2022-09-26T04:41:20.672Z,12.00
2022-09-26T04:43:48.377Z,12.00
2022-09-26T04:46:21.622Z,12.00
2022-09-26T04:48:51.492Z,12.00
2022-09-26T04:51:20.177Z,12.00
2022-09-26T04:53:47.153Z,12.00
2022-09-26T04:56:15.441Z,12.00
2022-09-26T04:58:43.388Z,12.20
2022-09-26T05:01:12.336Z,12.00
2022-09-26T05:03:39.502Z,12.00
2022-09-26T05:06:09.009Z,12.40
2022-09-26T05:08:36.692Z,12.00
2022-09-26T05:11:03.951Z,12.00
2022-09-26T05:13:31.790Z,12.10
2022-09-26T05:16:00.118Z,12.20
2022-09-26T05:18:28.066Z,12.20
2022-09-26T05:20:57.275Z,12.20
2022-09-26T05:23:45.273Z,12.20
2022-09-26T05:26:34.027Z,12.20
2022-09-26T05:29:07.757Z,12.20
2022-09-26T05:31:37.930Z,12.20
2022-09-26T05:34:07.671Z,12.30
2022-09-26T05:36:34.760Z,12.30
2022-09-26T05:39:02.345Z,12.30
2022-09-26T05:41:31.157Z,12.30
2022-09-26T05:43:58.385Z,12.40
2022-09-26T05:46:27.125Z,12.40
2022-09-26T05:48:55.592Z,12.50
2022-09-26T05:51:23.395Z,12.50
2022-09-26T05:53:50.432Z,12.50
2022-09-26T05:56:19.629Z,12.50
2022-09-26T05:58:47.347Z,12.50
2022-09-26T06:01:18.817Z,12.60
2022-09-26T06:03:46.884Z,12.70
2022-09-26T06:06:18.963Z,12.70
2022-09-26T06:08:47.108Z,12.80
2022-09-26T06:11:20.774Z,12.80
2022-09-26T06:13:47.733Z,12.90
2022-09-26T06:16:20.574Z,12.90
2022-09-26T06:18:50.691Z,13.00
2022-09-26T06:21:19.111Z,13.10
2022-09-26T06:23:46.150Z,13.20
2022-09-26T06:26:21.848Z,13.30
2022-09-26T06:28:53.267Z,13.40
2022-09-26T06:31:22.034Z,13.50
2022-09-26T06:33:53.394Z,13.60
2022-09-26T06:36:21.928Z,13.70
2022-09-26T06:38:49.228Z,13.80
2022-09-26T06:41:16.511Z,13.90
2022-09-26T06:43:47.390Z,14.00
2022-09-26T06:46:15.429Z,14.20
2022-09-26T06:48:42.673Z,14.20
2022-09-26T06:51:13.764Z,14.30
2022-09-26T06:53:40.829Z,14.50
2022-09-26T06:56:08.207Z,14.60
2022-09-26T06:58:35.083Z,14.80
2022-09-26T07:01:02.529Z,15.10
2022-09-26T07:03:32.222Z,15.30
2022-09-26T07:05:59.335Z,15.60
2022-09-26T07:09:00.423Z,15.80
2022-09-26T07:14:05.486Z,16.10
2022-09-26T07:16:32.402Z,16.30
2022-09-26T07:18:59.281Z,16.40
2022-09-26T07:21:26.296Z,16.50
2022-09-26T07:23:57.717Z,16.50
2022-09-26T07:26:24.671Z,16.50
2022-09-26T07:28:54.760Z,16.40
2022-09-26T07:31:23.557Z,16.50
2022-09-26T07:33:50.548Z,16.50
2022-09-26T07:36:18.391Z,16.40
2022-09-26T07:38:48.567Z,16.30
2022-09-26T07:41:15.929Z,16.30
2022-09-26T07:44:34.561Z,16.20
2022-09-26T07:46:49.100Z,16.10
2022-09-26T07:49:35.555Z,16.10
2022-09-26T07:52:02.450Z,16.00
2022-09-26T07:54:29.362Z,16.00
2022-09-26T07:56:56.372Z,16.00
2022-09-26T07:59:23.466Z,16.00
2022-09-26T08:01:53.198Z,16.10
2022-09-26T08:04:20.479Z,16.20
2022-09-26T08:06:47.520Z,16.20
2022-09-26T08:09:16.416Z,16.30
2022-09-26T08:11:43.480Z,16.60
2022-09-26T08:14:11.795Z,16.50
2022-09-26T08:16:41.935Z,16.70
2022-09-26T08:19:17.207Z,16.90
2022-09-26T08:21:44.263Z,16.90
2022-09-26T08:24:11.241Z,17.00
2022-09-26T08:26:44.080Z,17.20
2022-09-26T08:29:12.500Z,17.40
2022-09-26T08:31:39.845Z,17.60
2022-09-26T08:34:07.727Z,17.80
2022-09-26T08:36:37.390Z,17.90
2022-09-26T08:39:05.003Z,18.00
2022-09-26T08:41:41.221Z,18.10
2022-09-26T08:44:32.400Z,18.20
2022-09-26T08:47:07.028Z,18.30
2022-09-26T08:49:50.550Z,18.30
2022-09-26T08:52:35.890Z,18.30
2022-09-26T08:55:12.056Z,18.20
2022-09-26T08:57:41.478Z,18.20
2022-09-26T09:00:21.969Z,18.10
2022-09-26T09:03:33.183Z,18.20
2022-09-26T09:06:13.672Z,18.30
2022-09-26T09:08:44.355Z,18.40
2022-09-26T09:11:20.609Z,18.50
2022-09-26T09:14:13.391Z,18.60
2022-09-26T09:17:00.673Z,18.60
2022-09-26T09:19:50.607Z,18.30
2022-09-26T09:22:44.972Z,18.10
2022-09-26T09:25:22.870Z,18.00
2022-09-26T09:28:08.458Z,18.00
2022-09-26T09:30:45.660Z,17.90
2022-09-26T09:33:18.388Z,17.90
2022-09-26T09:35:52.012Z,18.00
2022-09-26T09:38:34.575Z,18.10
2022-09-26T09:41:12.432Z,18.10
2022-09-26T09:43:51.608Z,18.00
2022-09-26T09:46:41.177Z,18.00
2022-09-26T09:49:08.792Z,17.90
2022-09-26T09:51:48.475Z,17.80
2022-09-26T09:54:30.726Z,17.90
2022-09-26T09:57:11.618Z,17.90
2022-09-26T10:00:07.664Z,17.90
2022-09-26T10:03:11.303Z,18.00
2022-09-26T10:05:45.369Z,18.10
2022-09-26T10:08:19.572Z,18.30
2022-09-26T10:10:58.559Z,18.50
2022-09-26T10:13:28.191Z,18.70
2022-09-26T10:16:01.038Z,18.80
2022-09-26T10:18:31.768Z,18.80
2022-09-26T10:21:12.799Z,18.90
2022-09-26T10:23:45.454Z,18.90
2022-09-26T10:26:16.660Z,18.90
2022-09-26T10:28:48.369Z,19.00
2022-09-26T10:31:42.702Z,19.10
2022-09-26T10:34:28.118Z,19.10
2022-09-26T10:36:56.122Z,19.10
2022-09-26T10:39:44.456Z,19.20
2022-09-26T10:42:23.016Z,19.20
2022-09-26T10:44:51.114Z,19.30
2022-09-26T10:47:25.983Z,19.30
2022-09-26T10:50:16.829Z,19.40
2022-09-26T10:52:49.746Z,19.40
2022-09-26T10:55:31.336Z,19.40
2022-09-26T10:58:07.929Z,19.40
2022-09-26T11:00:42.295Z,19.40
2022-09-26T11:03:24.429Z,19.40
2022-09-26T11:05:57.408Z,19.50
2022-09-26T11:39:35.551Z,20.20
2022-09-26T11:45:53.746Z,19.90
2022-09-26T11:48:36.299Z,19.60
2022-09-26T11:51:42.078Z,19.90
2022-09-26T11:54:34.442Z,19.90
2022-09-26T11:57:16.265Z,19.90
2022-09-26T12:00:02.942Z,20.10
2022-09-26T12:03:05.791Z,20.20
2022-09-26T12:05:44.594Z,20.30
2022-09-26T12:08:14.983Z,20.30
2022-09-26T12:10:50.548Z,20.30
2022-09-26T12:14:00.706Z,20.30
2022-09-26T12:16:47.491Z,20.20
2022-09-26T12:19:41.619Z,20.20
2022-09-26T12:22:29.155Z,20.10
2022-09-26T12:25:22.954Z,20.00
2022-09-26T12:28:15.434Z,20.00
2022-09-26T12:30:52.333Z,20.10
2022-09-26T12:33:36.931Z,20.10
2022-09-26T12:36:41.936Z,20.20
2022-09-26T12:39:27.143Z,20.20
2022-09-26T12:42:26.750Z,20.00
2022-09-26T12:45:16.874Z,20.00
2022-09-26T12:48:15.963Z,19.90
2022-09-26T12:54:35.539Z,20.10
2022-09-26T13:00:16.814Z,20.00
2022-09-26T13:03:32.880Z,19.80
2022-09-26T13:06:28.303Z,19.60
2022-09-26T13:09:13.572Z,19.10
2022-09-26T13:12:31.797Z,19.20
2022-09-26T13:15:44.021Z,18.70
2022-09-26T13:18:26.736Z,18.80
2022-09-26T13:21:03.303Z,18.80
2022-09-26T13:23:44.988Z,18.60
2022-09-26T13:26:25.605Z,18.20
2022-09-26T13:29:24.482Z,18.50
2022-09-26T13:32:23.820Z,18.40
2022-09-26T13:35:21.897Z,18.40
2022-09-26T13:38:16.069Z,18.30
2022-09-26T13:41:02.853Z,18.20
2022-09-26T13:43:53.550Z,18.00
2022-09-26T13:49:54.385Z,17.50
2022-09-26T13:52:52.558Z,17.30
2022-09-26T13:55:25.616Z,17.10
2022-09-26T13:58:04.117Z,16.80
2022-09-26T14:03:42.387Z,16.50
2022-09-26T14:06:30.048Z,16.30
2022-09-26T14:09:30.867Z,16.30
2022-09-26T14:12:25.727Z,16.40
2022-09-26T14:15:27.339Z,16.50
2022-09-26T14:18:27.312Z,16.20
2022-09-26T14:21:07.752Z,16.40
2022-09-26T14:23:47.426Z,16.30
2022-09-26T14:26:28.418Z,16.30
2022-09-26T14:29:11.174Z,15.90
2022-09-26T14:31:42.335Z,16.00
2022-09-26T14:34:28.448Z,15.90
2022-09-26T14:37:00.819Z,15.80
2022-09-26T14:39:40.179Z,15.40
2022-09-26T14:42:23.168Z,15.50
2022-09-26T15:09:28.698Z,14.90
2022-09-26T15:12:06.915Z,14.90
2022-09-26T15:14:48.638Z,14.80
2022-09-26T15:17:32.069Z,14.40
2022-09-26T15:20:02.511Z,14.60
2022-09-26T15:22:31.657Z,14.60
2022-09-26T15:25:10.339Z,14.30
2022-09-26T15:27:37.625Z,14.50
2022-09-26T15:30:18.124Z,14.40
2022-09-26T15:32:49.221Z,14.40
2022-09-26T15:35:17.095Z,14.30
2022-09-26T15:37:45.892Z,14.30
2022-09-26T15:40:26.370Z,14.30
2022-09-26T15:43:13.788Z,14.20
2022-09-26T15:45:46.822Z,14.20
2022-09-26T15:48:32.876Z,14.10
2022-09-26T15:51:06.392Z,14.10
2022-09-26T15:53:36.546Z,14.20
2022-09-26T15:56:26.628Z,14.20
2022-09-26T15:59:12.661Z,14.30
2022-09-26T16:01:45.537Z,14.30
2022-09-26T16:04:21.542Z,14.30
2022-09-26T16:06:53.258Z,14.40
2022-09-26T16:09:32.229Z,14.40
2022-09-26T16:12:02.970Z,14.50
2022-09-26T16:14:37.845Z,14.50
2022-09-26T16:17:32.605Z,14.50
2022-09-26T16:20:18.012Z,14.60
2022-09-26T16:25:59.182Z,14.80
2022-09-26T16:28:53.780Z,15.00
2022-09-26T16:31:42.773Z,15.10
2022-09-26T16:34:22.399Z,15.10
2022-09-26T16:36:50.798Z,15.20
2022-09-26T16:39:31.385Z,15.20
2022-09-26T16:42:14.651Z,15.30
2022-09-26T16:44:49.961Z,15.30
2022-09-26T16:47:45.071Z,15.30
2022-09-26T16:50:26.573Z,15.30
2022-09-26T16:52:54.522Z,15.30
2022-09-26T16:55:22.710Z,15.30
2022-09-26T16:57:59.852Z,15.30
2022-09-26T17:00:52.644Z,15.20
2022-09-26T17:03:32.811Z,15.20
2022-09-26T17:06:00.584Z,15.20
2022-09-26T17:08:28.370Z,15.10
2022-09-26T17:10:58.637Z,15.00
2022-09-26T17:13:28.300Z,15.00
2022-09-26T17:15:57.460Z,15.00
2022-09-26T17:18:29.603Z,15.00
2022-09-26T17:20:59.265Z,14.90
2022-09-26T17:23:39.845Z,14.90
2022-09-26T17:26:07.933Z,14.80
2022-09-26T17:28:39.289Z,14.80
2022-09-26T17:31:09.029Z,14.80
2022-09-26T17:33:42.044Z,14.80
2022-09-26T17:36:18.297Z,14.80
2022-09-26T17:38:45.984Z,14.80
2022-09-26T17:41:13.082Z,14.80
2022-09-26T17:43:41.654Z,14.70
2022-09-26T17:46:16.165Z,14.70
2022-09-26T17:48:44.832Z,14.70
2022-09-26T17:51:14.527Z,14.70
2022-09-26T17:53:51.114Z,14.70
2022-09-26T17:56:21.560Z,14.70
2022-09-26T17:58:49.839Z,14.70
2022-09-26T18:01:30.471Z,14.70
2022-09-26T18:04:02.563Z,14.70
2022-09-26T18:06:32.808Z,14.70
2022-09-26T18:09:05.575Z,14.60
2022-09-26T18:11:34.706Z,14.60
2022-09-26T18:14:04.709Z,14.60
2022-09-26T18:16:31.912Z,14.60
2022-09-26T18:19:04.533Z,14.60
2022-09-26T18:21:34.238Z,14.60
2022-09-26T18:24:02.938Z,14.60
2022-09-26T18:26:33.129Z,14.60
2022-09-26T18:29:05.499Z,14.60
2022-09-26T18:31:36.653Z,14.60
2022-09-26T18:34:03.821Z,14.60
2022-09-26T18:36:34.050Z,14.60
2022-09-26T18:39:01.504Z,14.60
2022-09-26T18:41:29.575Z,14.50
2022-09-26T18:44:00.285Z,14.40
2022-09-26T18:46:29.177Z,14.20
2022-09-26T18:49:01.977Z,14.10
2022-09-26T18:51:29.087Z,13.90
2022-09-26T18:53:56.101Z,13.80
2022-09-26T18:56:41.941Z,13.70
2022-09-26T18:59:10.327Z,13.60
2022-09-26T19:01:41.532Z,13.60
2022-09-26T19:04:23.133Z,13.50
2022-09-26T19:06:59.220Z,13.50
2022-09-26T19:09:33.956Z,13.40
2022-09-26T19:12:02.469Z,13.10
2022-09-26T19:14:30.699Z,13.30
2022-09-26T19:16:58.216Z,13.30
2022-09-26T19:19:26.144Z,13.30
2022-09-26T19:22:08.152Z,13.20
2022-09-26T19:24:38.019Z,13.20
2022-09-26T19:27:15.431Z,13.20
2022-09-26T19:29:52.222Z,13.10
2022-09-26T19:32:23.351Z,13.10
2022-09-26T19:34:54.427Z,13.10
2022-09-26T19:37:21.642Z,13.10
2022-09-26T19:39:48.603Z,13.10
2022-09-26T19:42:15.863Z,13.10
2022-09-26T19:44:43.400Z,13.10
2022-09-26T19:47:18.622Z,13.20
2022-09-26T19:49:48.862Z,13.10
2022-09-26T19:52:17.547Z,13.20
2022-09-26T19:54:45.444Z,13.20
2022-09-26T19:57:17.610Z,13.30
2022-09-26T19:59:45.858Z,13.30
2022-09-26T20:02:22.579Z,13.30
2022-09-26T20:04:54.052Z,13.40
2022-09-26T20:07:21.165Z,13.40
2022-09-26T20:09:48.284Z,13.50
2022-09-26T20:12:15.818Z,13.50
2022-09-26T20:14:43.188Z,13.50
2022-09-26T20:20:07.113Z,13.70
2022-09-26T20:22:34.445Z,13.70
2022-09-26T20:25:03.384Z,13.80
2022-09-26T20:27:30.553Z,13.90
2022-09-26T20:30:16.456Z,13.90
2022-09-26T20:32:43.365Z,14.00
2022-09-26T20:35:17.338Z,14.00
2022-09-26T20:37:44.820Z,14.00
2022-09-26T20:40:24.232Z,14.00
2022-09-26T20:43:01.991Z,13.90
2022-09-26T20:45:33.843Z,14.10
2022-09-26T20:48:01.162Z,14.10
2022-09-26T20:50:35.563Z,14.10
2022-09-26T20:53:02.568Z,14.10
2022-09-26T20:55:32.553Z,14.10
2022-09-26T20:57:59.833Z,14.10
2022-09-26T21:00:26.863Z,14.20
2022-09-26T21:02:57.331Z,14.20
2022-09-26T21:05:27.588Z,14.20
2022-09-26T21:07:56.886Z,14.20
2022-09-26T21:10:24.105Z,14.10
2022-09-26T21:12:51.491Z,14.20
2022-09-26T21:15:19.002Z,14.20
2022-09-26T21:17:47.204Z,14.20
2022-09-26T21:20:17.808Z,14.20
2022-09-26T21:22:45.139Z,14.20
2022-09-26T21:25:17.589Z,14.20
2022-09-26T21:27:50.994Z,14.20
2022-09-26T21:30:18.452Z,14.20
2022-09-26T21:32:59.824Z,14.20
2022-09-26T21:35:32.152Z,14.20
2022-09-26T21:38:01.092Z,14.30
2022-09-26T21:40:31.316Z,14.30
2022-09-26T21:43:10.110Z,14.20
2022-09-26T21:45:37.287Z,14.20
2022-09-26T21:48:04.515Z,14.20
2022-09-26T21:50:31.531Z,14.20
2022-09-26T21:53:11.129Z,14.20
2022-09-26T21:55:43.255Z,14.20
2022-09-26T21:58:15.846Z,14.20
2022-09-26T22:00:42.843Z,14.20
2022-09-26T22:03:10.174Z,14.20
2022-09-26T22:05:37.357Z,14.30
2022-09-26T22:08:04.331Z,14.30
2022-09-26T22:10:31.447Z,14.30
2022-09-26T22:12:58.500Z,14.30
2022-09-26T22:15:25.443Z,14.30
2022-09-26T22:17:53.633Z,14.20
2022-09-26T22:20:21.816Z,14.20
2022-09-26T22:22:49.363Z,14.20
2022-09-26T22:25:16.591Z,14.20
2022-09-26T22:27:43.650Z,14.20
2022-09-26T22:30:11.236Z,14.20
2022-09-26T22:32:38.442Z,14.20
2022-09-26T22:35:05.953Z,14.20
2022-09-26T22:37:33.062Z,14.20
2022-09-26T22:40:00.073Z,14.20
2022-09-26T22:42:27.134Z,14.10
2022-09-26T22:44:54.128Z,13.90
2022-09-26T22:47:21.085Z,13.80
2022-09-26T22:49:49.336Z,13.70
2022-09-26T22:52:16.474Z,13.60
2022-09-26T22:54:44.554Z,13.50
2022-09-26T22:57:11.722Z,13.40
2022-09-26T22:59:39.344Z,13.30
2022-09-26T23:02:06.758Z,13.20
2022-09-26T23:04:54.333Z,13.10
2022-09-26T23:07:21.925Z,13.00
2022-09-26T23:10:08.707Z,12.90
2022-09-26T23:12:55.562Z,12.80
2022-09-26T23:15:50.651Z,12.80
2022-09-26T23:18:39.538Z,12.70
2022-09-26T23:21:31.432Z,12.60
2022-09-26T23:23:58.963Z,12.60
2022-09-26T23:38:48.617Z,12.50
2022-09-26T23:41:36.900Z,12.40
2022-09-26T23:44:22.954Z,12.40
